Time;durP1;ratioP1;P1;durP2;ratioP2;P2;SDS_P1;SDS_P2;PMS_P1;PMS_P2;Temp;Humidity;BMP_temperature;BMP_pressure;BME280_temperature;BME280_humidity;BME280_pressure;Samples;Min_cycle;Max_cycle;Signal;HPM_P1;HPM_P2
2023/09/09 00:00:43;;;;;;;13.80;7.80;;;;;;;19.65;86.64;95270.47;5093752;28;20442;-77
2023/09/09 00:03:10;;;;;;;10.63;8.30;;;;;;;19.66;86.72;95277.47;5093616;28;20446;-77
2023/09/09 00:05:36;;;;;;;7.70;7.00;;;;;;;19.80;86.43;95284.69;5095355;28;20450;-76
2023/09/09 00:08:04;;;;;;;13.07;8.23;;;;;;;19.75;86.02;95288.91;5095812;28;20442;-77
2023/09/09 00:10:31;;;;;;;8.90;8.00;;;;;;;19.77;86.09;95287.72;5094533;28;20446;-77
2023/09/09 00:12:59;;;;;;;10.53;7.70;;;;;;;19.82;85.94;95281.84;5042655;28;20442;-77
2023/09/09 00:15:26;;;;;;;14.50;7.60;;;;;;;19.84;86.04;95276.34;5094733;28;20534;-77
2023/09/09 00:17:53;;;;;;;14.90;8.13;;;;;;;19.86;85.67;95277.81;5093813;28;20535;-76
2023/09/09 00:20:30;;;;;;;11.90;8.00;;;;;;;19.76;86.21;95272.75;5095898;28;20479;-76
2023/09/09 00:22:57;;;;;;;11.50;8.87;;;;;;;19.60;87.72;95274.66;5060423;28;20452;-76
2023/09/09 00:25:27;;;;;;;11.03;9.57;;;;;;;19.64;87.24;95268.00;5095752;28;20928;-77
2023/09/09 00:27:55;;;;;;;14.30;9.60;;;;;;;19.42;88.44;95269.59;5095663;28;20524;-77
2023/09/09 00:30:23;;;;;;;14.93;9.67;;;;;;;19.34;88.95;95261.66;5095668;28;20449;-76
2023/09/09 00:32:50;;;;;;;15.13;8.90;;;;;;;19.25;89.69;95262.69;5095227;28;20721;-76
2023/09/09 00:35:17;;;;;;;8.63;7.83;;;;;;;19.28;89.33;95257.84;5096401;28;20447;-77
2023/09/09 00:37:44;;;;;;;10.00;7.40;;;;;;;19.35;89.43;95263.31;5096645;28;20492;-76
2023/09/09 00:40:12;;;;;;;12.10;8.60;;;;;;;19.34;89.03;95262.47;5060380;28;20470;-77
2023/09/09 00:42:40;;;;;;;9.30;8.60;;;;;;;19.33;88.84;95265.31;5098733;28;20480;-76
2023/09/09 00:45:07;;;;;;;9.87;8.57;;;;;;;19.29;89.04;95266.66;5099708;28;20437;-77
2023/09/09 00:47:36;;;;;;;10.00;7.90;;;;;;;19.25;89.27;95262.69;5046179;28;21351;-77
2023/09/09 00:50:09;;;;;;;10.63;7.80;;;;;;;19.23;89.66;95265.53;5099821;28;20440;-77
2023/09/09 00:52:38;;;;;;;10.30;9.13;;;;;;;19.26;89.70;95269.69;5097960;28;20518;-77
2023/09/09 00:55:06;;;;;;;14.50;9.60;;;;;;;19.27;89.22;95252.72;5099665;28;20437;-76
2023/09/09 00:57:33;;;;;;;12.60;9.60;;;;;;;19.27;89.34;95252.72;5099304;28;20478;-77
2023/09/09 01:00:09;;;;;;;13.67;9.53;;;;;;;19.27;88.61;95258.03;5099956;28;20509;-77
2023/09/09 01:02:38;;;;;;;13.90;9.20;;;;;;;19.12;89.08;95253.47;5099031;28;20478;-76
2023/09/09 01:05:06;;;;;;;9.77;8.83;;;;;;;19.15;88.79;95255.78;5097908;28;20455;-76
2023/09/09 01:07:43;;;;;;;14.90;9.30;;;;;;;19.14;88.83;95256.78;5097510;28;20954;-76
2023/09/09 01:10:10;;;;;;;13.17;10.53;;;;;;;19.14;88.74;95250.63;5098818;28;20481;-77
2023/09/09 01:12:37;;;;;;;10.20;8.80;;;;;;;19.11;88.86;95246.47;5099218;28;20504;-76
2023/09/09 01:15:06;;;;;;;9.40;8.50;;;;;;;19.10;88.84;95242.16;5099882;28;20470;-77
2023/09/09 01:17:33;;;;;;;16.30;9.93;;;;;;;19.10;88.87;95242.16;5064923;28;20488;-76
2023/09/09 01:20:05;;;;;;;9.10;8.30;;;;;;;19.06;89.13;95235.50;5063856;28;20483;-76
2023/09/09 01:22:35;;;;;;;9.87;8.97;;;;;;;19.07;88.90;95241.66;5100607;28;20475;-77
2023/09/09 01:25:04;;;;;;;10.00;9.03;;;;;;;19.02;89.00;95241.34;5097822;28;20533;-76
2023/09/09 01:27:31;;;;;;;9.87;8.93;;;;;;;18.98;89.12;95240.88;5097836;28;20480;-76
2023/09/09 01:29:59;;;;;;;9.77;8.87;;;;;;;18.96;89.53;95240.22;5097785;28;20443;-76
2023/09/09 01:32:26;;;;;;;12.40;9.43;;;;;;;18.92;89.84;95252.22;5097957;28;20809;-76
2023/09/09 01:34:52;;;;;;;12.83;9.37;;;;;;;18.93;89.59;95242.41;5098898;28;20956;-77
2023/09/09 01:37:20;;;;;;;11.60;10.40;;;;;;;18.94;89.91;95236.06;5097711;28;20440;-76
2023/09/09 01:39:48;;;;;;;13.57;10.90;;;;;;;18.91;90.13;95234.59;5096744;28;20448;-76
2023/09/09 01:42:15;;;;;;;12.23;10.30;;;;;;;18.87;90.55;95239.44;5096914;28;20459;-76
2023/09/09 01:44:44;;;;;;;13.00;10.87;;;;;;;18.89;90.30;95236.59;5096599;28;20459;-77
2023/09/09 01:47:13;;;;;;;12.40;11.03;;;;;;;18.92;89.91;95236.25;5097204;28;20442;-77
2023/09/09 01:49:40;;;;;;;12.87;11.57;;;;;;;18.88;90.10;95240.25;5061442;28;20437;-77
2023/09/09 01:52:10;;;;;;;12.30;11.10;;;;;;;18.83;90.15;95242.63;5096386;28;20468;-77
2023/09/09 01:54:36;;;;;;;16.90;11.83;;;;;;;18.69;90.74;95238.00;5094408;28;20454;-77
2023/09/09 01:57:05;;;;;;;12.80;11.60;;;;;;;18.56;91.12;95235.84;5093996;28;20439;-77
2023/09/09 01:59:32;;;;;;;14.87;12.00;;;;;;;18.45;91.74;95239.69;5093802;28;20492;-77
2023/09/09 02:01:59;;;;;;;13.97;11.10;;;;;;;18.38;91.80;95244.03;5097218;28;20455;-76
2023/09/09 02:04:26;;;;;;;15.40;10.93;;;;;;;18.37;92.29;95246.84;5097784;28;20448;-76
2023/09/09 02:06:53;;;;;;;13.63;10.87;;;;;;;18.41;92.22;95242.84;5096376;28;20439;-77
2023/09/09 02:09:19;;;;;;;11.10;10.00;;;;;;;18.43;91.86;95243.50;5044538;28;20486;-77
2023/09/09 02:11:47;;;;;;;12.87;11.53;;;;;;;18.43;91.90;95239.03;5096782;28;20462;-77
2023/09/09 02:14:15;;;;;;;13.70;10.77;;;;;;;18.41;91.82;95238.38;5094745;28;20448;-77
2023/09/09 02:16:42;;;;;;;13.83;12.03;;;;;;;18.41;92.05;95235.72;5043163;28;20456;-77
2023/09/09 02:19:09;;;;;;;12.90;11.60;;;;;;;18.46;91.96;95232.53;5094296;28;20480;-77
2023/09/09 02:21:36;;;;;;;16.90;12.67;;;;;;;18.46;91.38;95229.88;5094853;28;20440;-77
2023/09/09 02:24:03;;;;;;;21.30;12.20;;;;;;;18.45;91.41;95231.72;5096756;28;20452;-77
2023/09/09 02:26:30;;;;;;;15.90;12.53;;;;;;;18.47;91.64;95231.53;5097252;28;20445;-76
2023/09/09 02:28:57;;;;;;;17.70;12.93;;;;;;;18.42;91.71;95229.41;5093619;28;20466;-77
2023/09/09 02:31:25;;;;;;;15.37;13.23;;;;;;;18.38;91.39;95228.06;5093667;28;20444;-76
2023/09/09 02:33:52;;;;;;;13.00;11.70;;;;;;;18.31;91.68;95226.28;5093281;28;20450;-76
2023/09/09 02:36:19;;;;;;;14.60;13.10;;;;;;;18.18;91.87;95222.28;5093691;28;20444;-77
2023/09/09 02:38:46;;;;;;;22.60;12.80;;;;;;;18.13;92.18;95234.44;5093185;28;20854;-77
2023/09/09 02:41:13;;;;;;;15.60;13.50;;;;;;;18.08;92.70;95239.41;5093698;28;20468;-77
2023/09/09 02:43:40;;;;;;;18.13;14.47;;;;;;;18.02;93.31;95240.09;5093593;28;20444;-77
2023/09/09 02:46:07;;;;;;;18.97;14.17;;;;;;;18.04;93.56;95240.75;5094278;28;20442;-77
2023/09/09 02:48:35;;;;;;;15.90;14.17;;;;;;;18.00;93.51;95240.25;5093177;28;20502;-77
2023/09/09 02:51:02;;;;;;;17.83;14.53;;;;;;;17.99;93.41;95235.13;5093203;28;20489;-77
2023/09/09 02:53:30;;;;;;;16.67;14.97;;;;;;;18.01;93.48;95235.78;5093092;28;20466;-77
2023/09/09 02:55:56;;;;;;;17.80;14.40;;;;;;;18.03;93.51;95229.31;5093151;28;20447;-76
2023/09/09 02:58:23;;;;;;;21.20;14.23;;;;;;;18.09;92.99;95238.41;5094990;28;20482;-77
2023/09/09 03:00:50;;;;;;;20.47;15.30;;;;;;;18.12;93.13;95227.47;5095481;28;20449;-77
2023/09/09 03:03:31;;;;;;;16.03;14.20;;;;;;;18.11;92.60;95225.81;5040950;28;20448;-76
2023/09/09 03:08:51;;;;;;;14.27;12.90;;;;;;;18.01;92.78;95235.78;5011045;28;20487;-76
2023/09/09 03:11:18;;;;;;;15.87;13.60;;;;;;;17.99;92.87;95227.97;5011095;28;20953;-77
2023/09/09 03:13:45;;;;;;;19.93;14.60;;;;;;;18.03;93.00;95228.47;5011446;28;20441;-77
2023/09/09 03:16:11;;;;;;;17.07;14.37;;;;;;;18.03;92.87;95231.97;5011446;28;20765;-76
2023/09/09 03:18:38;;;;;;;16.60;15.07;;;;;;;18.03;92.98;95231.13;5011168;28;20492;-76
2023/09/09 03:21:06;;;;;;;18.83;15.37;;;;;;;18.03;92.59;95229.31;5011124;28;20455;-77
2023/09/09 03:23:33;;;;;;;22.20;14.63;;;;;;;18.09;92.49;95233.09;5011107;28;20446;-77
2023/09/09 03:26:00;;;;;;;17.23;14.83;;;;;;;18.13;92.12;95231.78;5011096;28;20451;-77
2023/09/09 03:28:27;;;;;;;16.10;14.43;;;;;;;18.15;91.75;95232.44;5011078;28;20443;-77
2023/09/09 03:30:55;;;;;;;16.77;14.97;;;;;;;18.10;91.43;95229.44;5011002;28;20460;-77
2023/09/09 03:33:22;;;;;;;23.20;17.03;;;;;;;18.10;91.55;95232.94;5011038;28;20441;-77
2023/09/09 03:35:49;;;;;;;19.30;15.27;;;;;;;17.99;90.99;95224.50;5010831;28;20441;-77
2023/09/09 03:38:17;;;;;;;18.70;16.43;;;;;;;18.01;91.47;95236.59;5010882;28;20491;-77
2023/09/09 03:40:44;;;;;;;20.27;16.13;;;;;;;18.00;91.24;95236.78;5010771;28;20441;-76
2023/09/09 03:43:11;;;;;;;20.57;16.73;;;;;;;17.99;91.19;95227.16;5010573;28;20772;-77
2023/09/09 03:45:37;;;;;;;21.20;18.07;;;;;;;17.92;91.25;95219.00;5032554;28;20453;-76
2023/09/09 03:48:05;;;;;;;22.83;16.87;;;;;;;17.93;91.70;95233.97;5095113;28;20768;-76
2023/09/09 03:50:32;;;;;;;24.13;16.50;;;;;;;17.92;91.98;95232.28;5092533;28;20808;-76
2023/09/09 03:52:59;;;;;;;25.67;16.70;;;;;;;17.82;92.22;95235.09;5093012;28;20468;-76
2023/09/09 03:55:27;;;;;;;19.87;16.93;;;;;;;17.93;93.07;95232.13;5092616;28;20447;-76
2023/09/09 03:57:54;;;;;;;17.57;15.73;;;;;;;17.98;92.14;95234.28;5092252;28;20456;-76
2023/09/09 04:00:21;;;;;;;20.60;16.80;;;;;;;18.00;91.36;95234.94;5092525;28;20464;-76
2023/09/09 04:02:48;;;;;;;24.83;17.63;;;;;;;18.00;90.91;95234.94;5092829;28;20460;-76
2023/09/09 04:05:15;;;;;;;21.30;17.13;;;;;;;17.99;91.09;95243.91;5092290;28;20443;-77
2023/09/09 04:07:44;;;;;;;19.63;17.40;;;;;;;17.98;91.21;95244.09;5092338;28;20436;-76
2023/09/09 04:10:11;;;;;;;21.50;17.53;;;;;;;17.93;91.60;95245.41;5092787;28;20479;-76
2023/09/09 04:12:39;;;;;;;24.30;17.37;;;;;;;17.95;91.69;95237.28;5092436;28;20498;-76
2023/09/09 04:15:08;;;;;;;18.73;16.30;;;;;;;17.97;91.33;95237.13;5081528;28;20498;-76
2023/09/09 04:17:34;;;;;;;16.43;14.53;;;;;;;17.97;91.61;95240.59;5088386;28;20463;-76
2023/09/09 04:20:03;;;;;;;21.70;17.03;;;;;;;18.08;92.41;95242.91;5077296;28;20882;-76
2023/09/09 04:22:30;;;;;;;20.73;15.53;;;;;;;18.30;91.05;95235.25;5085940;28;20458;-76
2023/09/09 04:24:57;;;;;;;23.63;16.00;;;;;;;18.63;89.55;95236.03;5076066;28;20912;-76
2023/09/09 04:27:24;;;;;;;19.80;15.83;;;;;;;19.13;87.58;95241.81;5041012;28;20465;-76
2023/09/09 04:29:52;;;;;;;17.50;15.70;;;;;;;19.63;84.39;95237.88;5075670;28;20440;-76
2023/09/09 04:32:19;;;;;;;19.30;15.30;;;;;;;20.08;81.62;95241.53;5076040;28;20913;-76
2023/09/09 04:34:46;;;;;;;19.80;15.50;;;;;;;20.55;79.39;95243.97;5076200;28;20442;-76
2023/09/09 04:37:14;;;;;;;18.43;13.10;;;;;;;20.89;78.44;95245.25;5076390;28;20507;-78
2023/09/09 04:39:40;;;;;;;16.40;13.20;;;;;;;21.15;76.33;95244.78;5040939;28;20488;-78
2023/09/09 04:42:07;;;;;;;27.10;14.40;;;;;;;21.28;75.17;95243.09;5024410;28;20444;-76
2023/09/09 04:44:34;;;;;;;17.30;14.00;;;;;;;21.25;74.66;95243.50;5075962;28;20923;-76
2023/09/09 04:47:02;;;;;;;16.80;15.00;;;;;;;21.27;75.21;95243.28;5076302;28;20519;-76
2023/09/09 04:49:29;;;;;;;15.47;13.90;;;;;;;21.34;75.25;95245.03;5040393;28;20443;-77
2023/09/09 04:51:56;;;;;;;20.97;14.23;;;;;;;21.38;74.26;95245.47;5040341;28;21480;-77
2023/09/09 04:54:23;;;;;;;25.57;15.17;;;;;;;21.40;75.25;95248.81;5076127;28;20439;-77
2023/09/09 04:56:50;;;;;;;16.47;13.50;;;;;;;21.51;75.89;95248.31;5076184;28;20449;-76
2023/09/09 04:59:16;;;;;;;15.23;13.17;;;;;;;21.78;75.10;95246.75;5075818;28;20483;-78
2023/09/09 05:01:43;;;;;;;16.10;13.80;;;;;;;22.31;73.03;95244.59;5075391;28;20447;-76
2023/09/09 05:04:11;;;;;;;18.10;14.23;;;;;;;22.87;70.62;95249.94;5075411;28;20430;-77
2023/09/09 05:06:38;;;;;;;16.50;12.60;;;;;;;23.26;68.30;95243.97;5039647;28;20488;-79
2023/09/09 05:09:05;;;;;;;15.77;14.17;;;;;;;23.48;65.80;95253.53;5075311;28;20458;-80
2023/09/09 05:11:32;;;;;;;16.30;13.10;;;;;;;23.63;65.25;95244.53;5075220;28;20470;-80
2023/09/09 05:13:58;;;;;;;15.70;14.07;;;;;;;23.86;64.59;95239.63;5075164;28;20443;-80
2023/09/09 05:16:25;;;;;;;14.27;12.77;;;;;;;24.05;63.77;95248.75;5075162;28;20445;-81
2023/09/09 05:18:52;;;;;;;16.17;13.57;;;;;;;24.26;63.63;95245.03;5077230;28;20486;-79
2023/09/09 05:21:20;;;;;;;15.17;13.60;;;;;;;24.44;61.93;95247.97;5095200;28;20492;-80
2023/09/09 05:23:47;;;;;;;17.43;15.37;;;;;;;24.56;61.83;95238.25;5094286;28;20454;-80
2023/09/09 05:26:14;;;;;;;13.80;12.50;;;;;;;24.56;61.63;95240.09;5094998;28;20997;-81
2023/09/09 05:28:41;;;;;;;14.47;12.97;;;;;;;24.46;61.61;95245.91;5042782;28;20455;-79
2023/09/09 05:31:08;;;;;;;22.50;15.40;;;;;;;24.25;62.41;95249.56;5094710;28;20468;-79
2023/09/09 05:33:34;;;;;;;16.87;14.30;;;;;;;24.30;62.56;95240.97;5054291;28;20789;-80
2023/09/09 05:36:01;;;;;;;16.37;13.70;;;;;;;24.27;62.44;95242.16;5039247;28;20440;-79
2023/09/09 05:38:29;;;;;;;15.73;13.30;;;;;;;24.22;62.58;95246.47;5089877;28;20444;-80
2023/09/09 05:40:56;;;;;;;14.03;12.03;;;;;;;24.25;63.41;95238.03;5095463;28;20435;-80
2023/09/09 05:43:23;;;;;;;16.20;14.60;;;;;;;24.35;63.09;95242.00;5096097;28;20440;-79
2023/09/09 05:45:50;;;;;;;16.27;14.43;;;;;;;24.43;63.38;95245.50;5043351;28;20833;-80
2023/09/09 05:48:16;;;;;;;18.87;13.57;;;;;;;24.73;63.13;95237.84;5095132;28;20448;-80
2023/09/09 05:50:43;;;;;;;16.23;14.73;;;;;;;24.88;62.17;95233.06;5094597;28;20447;-80
2023/09/09 05:53:10;;;;;;;14.40;12.93;;;;;;;25.07;61.63;95248.31;5094506;28;20467;-80
2023/09/09 05:55:38;;;;;;;14.50;13.00;;;;;;;25.17;61.74;95242.53;5094293;28;20443;-79
2023/09/09 05:58:05;;;;;;;16.17;13.83;;;;;;;25.18;61.30;95245.00;5094394;28;20440;-78
2023/09/09 06:00:32;;;;;;;19.17;15.47;;;;;;;25.27;61.16;95243.72;5095473;28;20492;-79
2023/09/09 06:02:59;;;;;;;16.20;14.50;;;;;;;25.41;61.04;95252.53;5095134;28;20451;-79
2023/09/09 06:05:26;;;;;;;15.60;13.93;;;;;;;25.61;61.06;95249.78;5095337;28;20436;-79
2023/09/09 06:07:52;;;;;;;18.17;16.20;;;;;;;25.70;60.59;95242.31;5098683;28;20444;-79
2023/09/09 06:10:19;;;;;;;13.83;12.53;;;;;;;25.78;61.07;95245.59;5099537;28;20444;-82
2023/09/09 06:12:47;;;;;;;14.13;12.70;;;;;;;25.72;60.14;95246.41;5097346;28;20447;-80
2023/09/09 06:15:14;;;;;;;15.80;12.30;;;;;;;25.99;75.53;95241.72;5092709;28;20443;-83
2023/09/09 06:17:41;;;;;;;13.13;11.83;;;;;;;26.40;60.69;95252.03;5091161;28;20459;-79
2023/09/09 06:20:09;;;;;;;15.10;13.63;;;;;;;26.86;58.55;95248.91;5077754;28;20484;-80
2023/09/09 06:22:36;;;;;;;16.63;12.90;;;;;;;27.25;56.83;95248.75;5037062;28;20502;-79
2023/09/09 06:25:04;;;;;;;14.13;12.73;;;;;;;27.40;55.11;95246.50;5082213;28;20432;-80
2023/09/09 06:27:31;;;;;;;17.40;13.20;;;;;;;27.67;55.42;95252.41;5073915;28;20487;-80
2023/09/09 06:29:59;;;;;;;14.30;12.30;;;;;;;27.99;55.10;95251.13;5078203;28;20440;-79
2023/09/09 06:32:26;;;;;;;14.90;13.40;;;;;;;27.87;53.24;95249.47;5050775;28;20834;-80
2023/09/09 06:34:52;;;;;;;19.33;14.60;;;;;;;27.63;53.00;95243.97;5078274;28;20464;-79
2023/09/09 06:37:19;;;;;;;18.80;14.27;;;;;;;27.29;54.16;95245.38;5093952;28;20501;-80
2023/09/09 06:39:46;;;;;;;16.60;14.10;;;;;;;26.92;55.20;95246.38;5092356;28;20483;-80
2023/09/09 06:42:14;;;;;;;19.33;11.70;;;;;;;26.81;56.20;95245.22;5094032;28;20444;-80
2023/09/09 06:44:41;;;;;;;14.73;13.20;;;;;;;26.75;58.01;95246.13;5082220;28;20457;-83
2023/09/09 06:47:10;;;;;;;13.70;12.30;;;;;;;26.82;55.97;95244.19;5073476;28;20440;-80
2023/09/09 06:49:37;;;;;;;15.40;13.23;;;;;;;26.82;55.83;95246.88;5074666;28;20509;-79
2023/09/09 06:52:04;;;;;;;15.53;12.50;;;;;;;26.76;56.02;95245.09;5073865;28;20453;-80
2023/09/09 06:54:31;;;;;;;15.07;13.40;;;;;;;26.80;56.30;95251.66;5077908;28;20444;-80
2023/09/09 06:56:58;;;;;;;14.80;13.30;;;;;;;26.74;55.95;95247.16;5041687;28;20451;-81
2023/09/09 06:59:24;;;;;;;14.43;13.00;;;;;;;26.80;56.01;95243.59;5057763;28;20484;-79
2023/09/09 07:01:51;;;;;;;14.10;12.20;;;;;;;26.85;55.62;95249.94;5040654;28;20435;-80
2023/09/09 07:04:19;;;;;;;14.63;11.60;;;;;;;26.83;56.13;95248.53;5092675;28;20436;-79
2023/09/09 07:06:46;;;;;;;17.97;11.80;;;;;;;26.82;55.45;95249.56;5093018;28;20436;-80
2023/09/09 07:09:13;;;;;;;19.50;11.60;;;;;;;26.59;57.49;95249.38;5093074;28;21205;-81
2023/09/09 07:11:41;;;;;;;15.73;11.37;;;;;;;26.71;57.31;95251.13;5092680;28;20444;-81
2023/09/09 07:14:07;;;;;;;14.20;11.67;;;;;;;26.71;57.26;95253.00;5092643;28;20861;-81
2023/09/09 07:16:35;;;;;;;13.40;11.60;;;;;;;26.72;56.94;95241.19;5092435;28;20802;-81
2023/09/09 07:19:02;;;;;;;16.80;9.73;;;;;;;26.52;57.39;95252.13;5092798;28;20841;-80
2023/09/09 07:21:30;;;;;;;18.67;10.60;;;;;;;26.63;57.03;95247.91;5092779;28;20976;-82
2023/09/09 07:23:57;;;;;;;11.33;10.17;;;;;;;26.77;55.97;95239.47;5040441;28;20783;-81
2023/09/09 07:26:25;;;;;;;12.47;8.80;;;;;;;26.94;56.19;95249.69;5092665;28;20782;-82
2023/09/09 07:28:52;;;;;;;13.40;9.63;;;;;;;27.10;54.37;95251.81;5041193;28;20444;-81
2023/09/09 07:31:19;;;;;;;15.87;10.13;;;;;;;27.11;54.72;95251.59;5092501;28;20523;-81
2023/09/09 07:33:46;;;;;;;13.10;9.00;;;;;;;27.15;53.74;95257.34;5092698;28;20917;-81
2023/09/09 07:36:12;;;;;;;15.23;9.57;;;;;;;27.15;53.25;95249.25;5092526;28;20808;-81
2023/09/09 07:38:40;;;;;;;9.97;7.70;;;;;;;27.31;52.06;95250.53;5092407;28;20917;-82
2023/09/09 07:41:07;;;;;;;8.27;6.60;;;;;;;27.32;49.98;95261.09;5091977;28;20967;-81
2023/09/09 07:43:34;;;;;;;12.83;7.43;;;;;;;27.58;51.15;95251.88;5092461;28;20965;-81
2023/09/09 07:46:01;;;;;;;12.53;7.47;;;;;;;27.79;50.10;95250.59;5092166;28;20922;-82
2023/09/09 07:48:27;;;;;;;8.37;7.17;;;;;;;27.94;49.79;95250.19;5092466;28;20444;-81
2023/09/09 07:50:56;;;;;;;8.40;7.60;;;;;;;27.97;45.49;95249.72;5092368;28;20475;-81
2023/09/09 07:53:23;;;;;;;8.27;5.37;;;;;;;27.55;44.72;95246.13;5092192;28;20545;-81
2023/09/09 07:55:52;;;;;;;14.60;4.70;;;;;;;27.30;43.85;95247.03;5092297;28;20469;-81
2023/09/09 07:58:19;;;;;;;7.53;6.80;;;;;;;27.53;44.15;95242.81;5092663;28;20447;-81
2023/09/09 08:00:46;;;;;;;4.83;4.37;;;;;;;27.73;42.07;95243.41;5058803;28;20483;-81
2023/09/09 08:03:14;;;;;;;10.00;5.33;;;;;;;27.94;41.77;95240.22;5092122;28;20450;-81
2023/09/09 08:05:41;;;;;;;6.27;4.30;;;;;;;28.05;40.94;95236.75;5092671;28;20446;-80
2023/09/09 08:08:08;;;;;;;10.67;5.07;;;;;;;28.03;40.16;95235.31;5092429;28;20436;-81
2023/09/09 08:10:35;;;;;;;4.43;3.97;;;;;;;27.89;39.60;95233.88;5092265;28;20458;-80
2023/09/09 08:13:04;;;;;;;5.93;4.30;;;;;;;27.96;40.04;95232.72;5092142;28;20450;-81
2023/09/09 08:15:30;;;;;;;5.30;4.10;;;;;;;27.86;37.84;95234.31;5056703;28;20438;-81
2023/09/09 08:17:57;;;;;;;4.67;4.00;;;;;;;27.88;39.03;95234.91;5092309;28;20447;-81
2023/09/09 08:20:24;;;;;;;7.53;4.40;;;;;;;28.00;37.01;95233.06;5039901;28;20483;-81
2023/09/09 08:22:51;;;;;;;4.33;3.93;;;;;;;27.90;38.04;95230.94;5091964;28;20444;-81
2023/09/09 08:25:18;;;;;;;4.77;4.27;;;;;;;27.52;36.28;95225.00;5091999;28;20440;-81
2023/09/09 08:27:45;;;;;;;7.23;4.17;;;;;;;27.63;36.66;95227.78;5091943;28;20926;-81
2023/09/09 08:30:15;;;;;;;6.33;5.23;;;;;;;27.46;37.76;95219.44;5056224;28;20497;-81
2023/09/09 08:32:42;;;;;;;5.77;4.27;;;;;;;27.55;37.78;95219.97;5092291;28;20536;-80
2023/09/09 08:35:08;;;;;;;7.60;3.73;;;;;;;27.71;37.37;95222.06;5091907;28;20475;-81
2023/09/09 08:37:35;;;;;;;6.73;4.77;;;;;;;27.78;37.66;95211.22;5091957;28;20440;-80
2023/09/09 08:40:03;;;;;;;5.73;4.97;;;;;;;27.50;38.24;95214.44;5091872;28;20483;-80
2023/09/09 08:42:41;;;;;;;4.97;4.10;;;;;;;26.98;37.64;95211.28;5091866;28;20501;-80
2023/09/09 08:45:20;;;;;;;12.47;5.10;;;;;;;27.17;39.22;95214.81;5091746;28;20498;-80
2023/09/09 08:47:49;;;;;;;5.97;5.47;;;;;;;27.48;38.16;95211.16;5091828;28;20435;-81
2023/09/09 08:50:18;;;;;;;4.97;4.33;;;;;;;27.44;38.69;95212.63;5091939;28;20448;-80
2023/09/09 08:52:47;;;;;;;4.80;4.33;;;;;;;27.08;37.92;95203.53;5092064;28;20835;-81
2023/09/09 08:55:14;;;;;;;6.30;4.20;;;;;;;27.06;39.04;95212.91;5091748;28;20444;-80
2023/09/09 08:57:41;;;;;;;6.73;4.30;;;;;;;26.99;39.25;95204.91;5091996;28;20454;-80
2023/09/09 09:00:09;;;;;;;10.73;4.50;;;;;;;27.22;39.19;95201.53;5091988;28;20848;-84
2023/09/09 09:02:38;;;;;;;8.83;4.73;;;;;;;27.41;38.04;95207.69;5093044;28;20456;-80
2023/09/09 09:05:05;;;;;;;4.80;4.10;;;;;;;27.40;37.44;95200.66;5096119;28;20858;-81
2023/09/09 09:07:35;;;;;;;4.00;3.57;;;;;;;27.43;36.45;95197.50;5043934;28;20541;-80
2023/09/09 09:10:02;;;;;;;9.97;4.10;;;;;;;27.60;37.88;95203.94;5095796;28;20444;-79
2023/09/09 09:12:31;;;;;;;7.03;4.90;;;;;;;27.54;36.37;95196.78;5095841;28;20505;-81
2023/09/09 09:14:58;;;;;;;4.50;3.50;;;;;;;27.66;37.00;95194.13;5043515;28;20918;-80
2023/09/09 09:17:26;;;;;;;5.13;4.60;;;;;;;27.93;41.52;95194.59;5095752;28;20452;-79
2023/09/09 09:19:55;;;;;;;5.30;3.90;;;;;;;28.03;37.28;95195.66;5095711;28;20483;-79
2023/09/09 09:22:21;;;;;;;4.80;4.37;;;;;;;28.21;37.44;95196.66;5095755;28;20497;-80
2023/09/09 09:24:48;;;;;;;7.50;5.27;;;;;;;28.36;35.07;95197.88;5095847;28;20451;-80
2023/09/09 09:27:16;;;;;;;4.83;4.30;;;;;;;28.36;40.37;95195.19;5095583;28;20455;-79
2023/09/09 09:29:45;;;;;;;4.77;3.67;;;;;;;28.32;36.20;95199.38;5095732;28;20440;-80
2023/09/09 09:32:14;;;;;;;6.13;4.30;;;;;;;28.10;35.44;95179.38;5095253;28;20481;-80
2023/09/09 09:34:40;;;;;;;7.07;4.67;;;;;;;27.77;37.44;95190.69;5095205;28;20523;-80
2023/09/09 09:37:13;;;;;;;15.63;4.90;;;;;;;27.88;36.11;95183.66;5095324;28;20951;-80
2023/09/09 09:39:40;;;;;;;7.80;4.60;;;;;;;27.85;36.13;95178.72;5095125;28;20440;-79
2023/09/09 09:42:07;;;;;;;6.40;4.40;;;;;;;27.81;36.29;95174.84;5095258;28;20443;-80
2023/09/09 09:44:34;;;;;;;8.80;4.90;;;;;;;27.57;35.24;95165.81;5042127;28;20440;-81
2023/09/09 09:47:03;;;;;;;7.53;4.30;;;;;;;27.64;37.34;95171.97;5094554;28;20781;-82
2023/09/09 09:49:34;;;;;;;6.93;3.67;;;;;;;27.37;35.58;95164.22;5042753;28;20442;-79
2023/09/09 09:52:02;;;;;;;4.87;3.67;;;;;;;27.26;35.53;95166.88;5084961;28;20872;-79
2023/09/09 09:54:33;;;;;;;4.20;3.80;;;;;;;27.15;34.77;95165.72;5074669;28;20437;-80
2023/09/09 09:57:02;;;;;;;4.00;3.63;;;;;;;26.88;35.79;95161.66;5074568;28;20441;-79
2023/09/09 09:59:30;;;;;;;5.90;4.47;;;;;;;26.84;33.98;95164.00;5074501;28;20596;-79
2023/09/09 10:01:57;;;;;;;4.00;3.50;;;;;;;27.03;34.82;95154.09;5074333;28;20520;-79
2023/09/09 10:04:26;;;;;;;4.03;3.40;;;;;;;26.91;33.26;95145.09;5074697;28;20452;-80
2023/09/09 10:06:57;;;;;;;4.00;3.60;;;;;;;27.05;32.31;95150.09;5088121;28;20466;-80
2023/09/09 10:09:33;;;;;;;3.80;3.40;;;;;;;27.16;33.52;95143.94;5099768;28;20455;-80
2023/09/09 10:12:05;;;;;;;5.37;3.77;;;;;;;27.38;33.40;95140.78;5047381;28;20450;-80
2023/09/09 10:14:32;;;;;;;5.33;3.27;;;;;;;27.48;32.24;95143.75;5093723;28;20432;-80
2023/09/09 10:17:00;;;;;;;3.73;3.43;;;;;;;27.49;32.11;95144.59;5093749;28;20451;-80
2023/09/09 10:19:29;;;;;;;3.43;3.13;;;;;;;27.59;33.15;95140.28;5093881;28;20482;-80
2023/09/09 10:21:57;;;;;;;4.97;2.30;;;;;;;26.96;28.75;95137.16;5093715;28;20578;-80
2023/09/09 10:24:26;;;;;;;2.50;2.30;;;;;;;26.88;26.30;95135.56;5093885;28;20440;-79
2023/09/09 10:26:54;;;;;;;5.83;2.50;;;;;;;26.72;26.01;95128.09;5093406;28;20440;-80
2023/09/09 10:29:23;;;;;;;5.03;3.13;;;;;;;26.92;28.63;95136.78;5040995;28;20443;-80
2023/09/09 10:31:53;;;;;;;2.73;2.53;;;;;;;26.93;28.53;95122.25;5093581;28;20447;-80
2023/09/09 10:34:21;;;;;;;2.23;2.13;;;;;;;26.90;27.36;95125.41;5093827;28;20452;-80
2023/09/09 10:36:52;;;;;;;2.57;2.37;;;;;;;26.94;28.39;95126.59;5041790;28;20447;-79
2023/09/09 10:39:22;;;;;;;4.03;2.53;;;;;;;26.84;26.24;95127.13;5093615;28;20850;-79
2023/09/09 10:41:50;;;;;;;2.70;2.50;;;;;;;26.83;26.59;95116.56;5093658;28;20491;-79
2023/09/09 10:44:17;;;;;;;6.30;2.70;;;;;;;26.79;27.01;95115.38;5093474;28;20520;-79
2023/09/09 10:46:45;;;;;;;3.07;2.53;;;;;;;26.76;26.65;95111.25;5093017;28;20436;-79
2023/09/09 10:49:16;;;;;;;3.73;3.20;;;;;;;26.85;28.03;95112.59;5093270;28;20436;-80
2023/09/09 10:51:49;;;;;;;2.40;2.20;;;;;;;26.89;27.24;95107.59;5092958;28;20838;-79
2023/09/09 10:54:16;;;;;;;7.63;2.53;;;;;;;27.02;29.81;95107.47;5093411;28;20443;-79
2023/09/09 10:56:47;;;;;;;2.90;2.70;;;;;;;27.10;29.74;95104.44;5093121;28;20501;-80
2023/09/09 10:59:19;;;;;;;2.63;2.43;;;;;;;27.24;27.22;95107.81;5040635;28;20440;-80
2023/09/09 11:01:47;;;;;;;4.27;2.87;;;;;;;27.35;28.16;95098.13;5092794;28;20993;-80
2023/09/09 11:04:23;;;;;;;2.40;2.20;;;;;;;27.46;28.57;95102.72;5057721;28;20448;-78
2023/09/09 11:07:04;;;;;;;2.70;2.50;;;;;;;27.26;27.96;95103.00;5092970;28;20452;-79
2023/09/09 11:09:31;;;;;;;2.60;2.40;;;;;;;27.29;28.15;95099.03;5093136;28;20964;-80
2023/09/09 11:11:58;;;;;;;5.00;2.70;;;;;;;27.32;28.78;95093.19;5092678;28;20448;-79
2023/09/09 11:14:31;;;;;;;5.20;2.20;;;;;;;27.38;28.86;95090.38;5092739;28;20440;-80
2023/09/09 11:16:59;;;;;;;4.00;2.90;;;;;;;27.14;30.55;95091.34;5092633;28;20532;-80
2023/09/09 11:19:27;;;;;;;2.90;2.70;;;;;;;27.13;28.86;95087.81;5056993;28;20447;-81
2023/09/09 11:21:55;;;;;;;2.90;2.67;;;;;;;27.10;30.10;95090.97;5093022;28;20518;-79
2023/09/09 11:24:22;;;;;;;3.20;2.90;;;;;;;27.08;29.76;95090.38;5092752;28;20531;-80
2023/09/09 11:26:50;;;;;;;2.70;2.50;;;;;;;27.09;30.06;95083.94;5092038;28;20436;-79
2023/09/09 11:29:19;;;;;;;3.80;3.00;;;;;;;27.05;30.34;95081.94;5092568;28;20432;-80